Terminal Aerodrome Forecast
Issued by NWS

Home | Current Version | Previous Version | Text Only | Print | Product List | Glossary On
Versions: 1 2 3 4 5 6 7 8 9 10 11 12 13 14
000
FTUS45 KRIW 022200 AAB
TAFBPI
TAF AMD
KBPI 022224Z 0222/0318 30016G24KT P6SM VCSH SCT060 BKN130
      TEMPO 0222/0224 31025G40KT
     FM030200 31013KT P6SM VCSH BKN060
     FM030600 VRB05KT P6SM SCT100 BKN150
     FM031700 16008KT P6SM VCSH SCT050 BKN090=

USA.gov is the U.S. government's official web portal to all federal, state and local government web resources and services.